Terminal Aerodrome Forecast
Issued by NWS

Current Version | Previous Version | Text Only | Print | Product List | Glossary On
Versions: 1 2 3 4 5 6 7 8 9 10 11 12 13 14 15 16 17 18 19 20 21 22 23 24 25 26 27 28 29 30 31 32 33 34 35 36 37 38 39 40 41 42 43 44 45 46 47 48 49 50
000
FTUS41 KCTP 202013 AAA
TAFBFD
TAF AMD
KBFD 202013Z 2020/2118 20008KT P6SM VCSH SCT025 OVC050
     FM210200 20005KT 5SM -SHRA BKN025 OVC040
     FM210600 18004KT 2SM -SHRA BR SCT007 OVC012
     FM210900 00000KT 2SM -RA BR OVC007
     FM211400 26007KT 5SM -SHRA OVC012=

USA.gov is the U.S. government's official web portal to all federal, state and local government web resources and services.